Forres, Argentina
Current Conditions -  °F | °C
As of 5:00 PM on Tuesday 25 Nov 2014 (Local Time) from SANT Reporting Station
Broken Clouds Broken Clouds  
Wind Chill: 75°   Ceiling: 10000
Heat Index: 75°   Visibility: 6mi
Dew Point: 63°   Wind: 5mph
Humidity: 65%   Direction: 180°S
Pressure: 29.85"   Gusts: NA
Location:  27.88°S, 63.97°W
Report Text: SANT 252000Z 18004KT 9999 FEW040 BKN10024/17 Q1011
Loading
Personal Weather Stations






























Interactive Weather Map New forecast layout! Learn more

10-Day Weather Forecast

Advertisements
Track Severe Weather on mobile